Country
Station

 

Weather  for  Khon Kaen  -  Thailand    Thailand

  
25 °C (77 °F)
    
 
 

Current METAR for Khon Kaen is :

VTUK 171100Z 22005KT 170V240 9999 SCT009 BKN025 BKN080 25/25 Q0999 NOSIG

 

This is a report for Khon Kaen - Thailand.
 
The report was made 35 minutes ago, at 11:00 UTC .
The wind was blowing at a speed of 2.6 meters per second (5.8 miles per hour) from southwest (220°), varying between south (170°) and west/southwest (240°).
 
The temperature was 25 °C (77 °F), with a dew-point at 25 °C (77 °F).
The temperature felt like 26 °C (78 °F).
 
The atmospheric pressure was 999 hPa (29.50 inHg).
The relative humidity was 100.0%.
 
There were scattered clouds at a height of 274 meters (900 feet), broken clouds at a height of 762 meters (2500 feet) and broken clouds at a height of 2438 meters (8000 feet).
 
The overall visibility was greater than 10 kilometers (6.2 miles).
 

 
 
 
 

Country :   A   B   C   D   E   F   G   H   I   J   K   L   M   N   O   P   Q   R   S   T   U   V   W   Y   Z

 

Site Info  |  Disclaimer  |  Credits  |  Privacy
Contact us  |  Add to favorites
© 2013-2018 METARs - All rights reserved